Rushville, New York
Current Conditions -  °F | °C
As of 11:02 PM on Wednesday 22 Oct 2014 (Local Time) from KPEO Reporting Station
Overcast Overcast  
Wind Chill: 44°   Ceiling: 6500
Heat Index: 48°   Visibility: 10mi
Dew Point: 41°   Wind: 8mph
Humidity: 77%   Direction: 350°N
Pressure: 30.11"   Gusts: 18mph
Location:  42.76°N, 77.23°W
Report Text: KPEO 230302Z AUTO 35007G16KT 10SM SCT020 OVC065 09/05 A3011 RMK AO2 T00890050
Loading
Personal Weather Stations






























Interactive Weather Map
Tropical Storm Tracking
New forecast layout! Learn more

10-Day Weather Forecast

Advertisements
Track Severe Weather on mobile